Main page
METAR-TAF:

METAR-TAF

Airports :

Lincoln Airport

Lincoln, Nebraska, United States

latitude: 40-49-52N, longitude: 096-45-52W, elevation: 1214 ft

Current weather observation

The report was made 35 minutes ago, at 14:54 UTC
Wind 5 mph from the Northwest
Temperature 72°F
Humidity 41%
Pressure 30.23 in. Hg
Visibility: 10 miles
Clear sky

METAR: KLNK 291454Z 31004KT 10SM CLR 22/08 A3023 RMK AO2 SLP228 T02170078 53008

Time: 10:29 (15:29 UTC)

Forecast

The report was made 4 hours and 9 minutes ago, at 11:20 UTC
Forecast valid from 29 at 12 UTC to 30 at 12 UTC
Wind 8 mph from the Northwest
Visibility: 6 miles
Clear sky

TAF: KLNK 291120Z 2912/3012 32007KT P6SM SKC

Weather observations and forecasts of more than 4000 airports (METAR and TAF reports).

The available stations are represented by yellow and red dots on the map.

Hover mouse over dot to see the name of the station.

Then click to see weather observations and forecasts.

To change the map : click on the green buttons with a black cross to zoom in, on the green button with a dash to zoom out, or on the green arrows for adjacent maps.


METAR-TAF: